aviador You're here:

PABA Decoded Metar

BARTER ISLAND in AK, USA
Report Time2018-07-22 01:52:00
UTC Time2018-07-22 02:54:19
Flight Rules vfr VFR
Wind070° at 10 kt
W.Decomp.*RWY 07: 8.9 kt HW 4.5 kt LCW
W.Rank070° ranks 6
Current wind is below 070° avg. (11.6)
Visibility9999 m
Phenomena:N/A
Clouds:Broken 075 Hf
Expected CloudBase > 1,600 ft AGL from Temp-Dew spread
Ceiling7,500 ft
Temp13°C (ISA -2)
Dew Point09°C (77% RH)
AAT9.2°C
QNH1023 hPa
Density Alt-413 ft
Elevation7 ft
Report Wrong Elevation
Raw Report
PABA 220152Z AUTO 07010KT 10SM BKN075 13/09 A3021=

Extra information for PABA:More info

Airport Information Weather charts Add Link Nearby Venues Social comments

AIRNAV info for PABA